Time;durP1;ratioP1;P1;durP2;ratioP2;P2;SDS_P1;SDS_P2;PMS_P1;PMS_P2;Temp;Humidity;BMP_temperature;BMP_pressure;BME280_temperature;BME280_humidity;BME280_pressure;Samples;Min_cycle;Max_cycle;Signal;HPM_P1;HPM_P2
2022/07/28 00:01:09;;;;;;;4.53;4.12;;;;;;;21.65;69.89;99699.06;1672021;83;20979;-67
2022/07/28 00:03:36;;;;;;;7.40;3.58;;;;;;;21.65;69.89;99699.06;1669417;85;21452;-66
2022/07/28 00:06:02;;;;;;;4.33;3.92;;;;;;;21.64;70.10;99699.19;1669070;85;21530;-66
2022/07/28 00:08:30;;;;;;;4.50;3.75;;;;;;;21.56;70.22;99697.19;1670648;85;21836;-67
2022/07/28 00:10:58;;;;;;;3.95;3.60;;;;;;;21.44;70.64;99704.94;1665211;85;21511;-66
2022/07/28 00:13:26;;;;;;;4.45;4.05;;;;;;;21.42;70.57;99706.88;1668814;85;21509;-66
2022/07/28 00:15:54;;;;;;;4.03;3.70;;;;;;;21.44;70.99;99703.14;1668002;85;21514;-66
2022/07/28 00:18:21;;;;;;;4.17;3.87;;;;;;;21.38;71.13;99708.50;1668134;85;21594;-66
2022/07/28 00:20:47;;;;;;;4.90;4.20;;;;;;;21.38;71.13;99708.50;1668789;85;21840;-66
2022/07/28 00:23:14;;;;;;;3.80;3.50;;;;;;;21.42;70.79;99706.88;1667711;85;21498;-67
2022/07/28 00:25:41;;;;;;;5.67;4.70;;;;;;;21.42;70.88;99705.53;1670043;85;21159;-66
2022/07/28 00:28:08;;;;;;;4.30;3.90;;;;;;;21.43;70.79;99700.06;1665314;85;21610;-66
2022/07/28 00:30:35;;;;;;;5.80;3.87;;;;;;;21.41;70.83;99705.20;1660472;85;21583;-66
2022/07/28 00:33:02;;;;;;;3.90;3.60;;;;;;;21.42;70.83;99704.20;1668062;85;21915;-66
2022/07/28 00:35:28;;;;;;;4.50;4.10;;;;;;;21.41;70.88;99713.22;1669817;83;22312;-67
2022/07/28 00:37:55;;;;;;;6.15;4.05;;;;;;;21.35;71.36;99712.77;1668461;85;21518;-66
2022/07/28 00:41:09;;;;;;;4.37;4.03;;;;;;;21.35;71.36;99712.77;1641943;85;21975;-67
2022/07/28 00:42:50;;;;;;;4.53;4.12;;;;;;;21.38;70.87;99713.00;1668882;85;21562;-67
2022/07/28 00:45:19;;;;;;;5.10;4.65;;;;;;;21.32;71.04;99714.39;1624099;85;22919;-66
2022/07/28 00:47:46;;;;;;;4.30;4.00;;;;;;;21.33;71.43;99716.06;1668432;85;20971;-66
2022/07/28 00:50:14;;;;;;;5.30;4.12;;;;;;;21.29;71.16;99712.47;1668707;85;21554;-66
2022/07/28 00:52:41;;;;;;;4.97;4.28;;;;;;;21.28;71.32;99712.93;1633374;85;21570;-66
2022/07/28 00:55:09;;;;;;;4.42;3.98;;;;;;;21.28;71.28;99716.10;1668160;83;21029;-66
2022/07/28 00:57:36;;;;;;;;;;;;;;;21.26;71.32;99725.59;1671090;85;21765;-67
2022/07/28 01:00:04;;;;;;;4.75;4.20;;;;;;;21.21;71.68;99722.48;1662590;85;20423;-66
2022/07/28 01:02:31;;;;;;;4.25;3.95;;;;;;;21.23;71.73;99730.34;1660304;85;21583;-66
2022/07/28 01:04:58;;;;;;;4.95;4.12;;;;;;;21.25;71.40;99719.90;1664682;85;21610;-66
2022/07/28 01:07:55;;;;;;;7.42;4.37;;;;;;;21.29;71.32;99717.31;1667633;85;21562;-66
2022/07/28 01:10:45;;;;;;;6.20;4.90;;;;;;;21.31;71.36;99715.35;1669855;85;22191;-66
2022/07/28 01:13:59;;;;;;;4.40;3.85;;;;;;;21.28;71.39;99706.74;1667903;83;21049;-66
2022/07/28 01:16:26;;;;;;;5.30;4.20;;;;;;;21.27;71.05;99715.77;1663133;85;21476;-66
2022/07/28 01:19:10;;;;;;;6.03;4.40;;;;;;;21.27;71.05;99715.77;1643634;85;21078;-67
2022/07/28 01:21:37;;;;;;;5.45;4.42;;;;;;;21.29;71.25;99724.00;1671539;85;21590;-67
2022/07/28 01:24:30;;;;;;;4.40;4.03;;;;;;;21.27;70.57;99717.10;1664727;85;21816;-66
2022/07/28 01:27:04;;;;;;;4.95;4.03;;;;;;;21.27;70.57;99717.10;1660395;85;21740;-67
2022/07/28 01:29:51;;;;;;;4.45;4.05;;;;;;;21.24;71.28;99722.20;1659316;85;21471;-66
2022/07/28 01:32:24;;;;;;;4.87;4.37;;;;;;;21.28;71.22;99723.62;1664625;85;21612;-67
2022/07/28 01:35:06;;;;;;;7.80;4.45;;;;;;;21.28;71.24;99716.94;1668902;85;21437;-65
2022/07/28 01:37:33;;;;;;;5.85;4.20;;;;;;;21.29;71.28;99715.98;1665154;84;21794;-64
2022/07/28 01:40:03;;;;;;;6.33;4.25;;;;;;;21.28;71.12;99723.62;1671111;85;21544;-66
2022/07/28 01:42:34;;;;;;;4.67;4.20;;;;;;;21.23;71.21;99724.53;1641164;85;21460;-66
2022/07/28 01:45:01;;;;;;;5.17;3.60;;;;;;;21.21;71.37;99727.83;1621289;86;21540;-66
2022/07/28 01:47:29;;;;;;;3.98;3.67;;;;;;;21.19;71.46;99723.95;1673584;84;21433;-66
2022/07/28 01:49:58;;;;;;;4.85;4.45;;;;;;;21.18;71.60;99729.42;1676995;84;21931;-66
2022/07/28 01:52:25;;;;;;;3.98;3.60;;;;;;;21.20;71.56;99726.96;1671086;84;21191;-66
2022/07/28 01:54:52;;;;;;;5.30;3.83;;;;;;;21.18;71.65;99725.41;1656254;84;21622;-66
2022/07/28 01:57:19;;;;;;;5.20;3.25;;;;;;;21.18;71.65;99725.41;1669584;85;21445;-66
2022/07/28 01:59:45;;;;;;;4.08;3.58;;;;;;;21.14;71.93;99723.98;1648047;84;21511;-66
2022/07/28 02:02:15;;;;;;;4.12;3.72;;;;;;;21.14;71.55;99720.81;1668891;84;21707;-65
2022/07/28 02:04:41;;;;;;;;;;;;;;;21.14;71.55;99720.81;1644780;84;21578;-66
2022/07/28 02:07:09;;;;;;;4.33;3.92;;;;;;;21.11;71.40;99729.58;1677464;85;20136;-66
2022/07/28 02:09:37;;;;;;;4.05;3.67;;;;;;;21.10;71.29;99734.09;1674199;84;21454;-66
2022/07/28 02:12:06;;;;;;;4.17;3.75;;;;;;;21.11;71.18;99728.25;1670620;84;21487;-66
2022/07/28 02:14:35;;;;;;;3.98;3.67;;;;;;;21.11;71.07;99729.58;1674329;83;21548;-69
2022/07/28 02:17:11;;;;;;;4.28;3.87;;;;;;;21.25;70.64;99723.91;1676759;85;21537;-66
2022/07/28 02:19:38;;;;;;;3.87;3.52;;;;;;;21.27;70.45;99731.81;1668580;84;21586;-66
2022/07/28 02:22:05;;;;;;;4.62;4.10;;;;;;;21.19;70.37;99736.45;1645918;85;21447;-66
2022/07/28 02:24:32;;;;;;;4.42;4.00;;;;;;;21.19;70.33;99739.99;1678480;84;21451;-65
2022/07/28 02:27:07;;;;;;;3.87;3.50;;;;;;;21.22;70.06;99741.55;1643857;86;22016;-65
2022/07/28 02:29:40;;;;;;;4.33;3.80;;;;;;;21.22;70.06;99741.55;1649299;84;21403;-65
2022/07/28 02:32:11;;;;;;;4.70;3.50;;;;;;;21.18;70.29;99740.12;1641925;85;21491;-65
2022/07/28 02:34:39;;;;;;;3.67;3.37;;;;;;;21.17;70.38;99742.41;1611397;88;21586;-65
2022/07/28 02:37:07;;;;;;;3.70;3.45;;;;;;;21.08;70.46;99746.74;1608516;86;20967;-65
2022/07/28 02:42:25;;;;;;;3.60;3.30;;;;;;;20.13;74.62;99782.13;1783148;78;23019;-64
2022/07/28 02:44:58;;;;;;;3.52;3.22;;;;;;;20.39;73.77;99784.52;1734866;80;21392;-65
2022/07/28 02:47:28;;;;;;;4.42;3.45;;;;;;;20.45;73.57;99777.33;1761350;80;21856;-65
2022/07/28 02:49:56;;;;;;;4.03;3.70;;;;;;;20.44;73.74;99775.65;1746546;79;21488;-65
2022/07/28 02:52:23;;;;;;;4.05;3.52;;;;;;;20.43;73.93;99769.93;1733304;80;21498;-65
2022/07/28 02:54:51;;;;;;;3.55;3.25;;;;;;;20.42;74.14;99773.59;1753764;80;20994;-65
2022/07/28 02:57:20;;;;;;;3.70;3.40;;;;;;;20.48;73.99;99772.24;1756245;80;21548;-65
2022/07/28 02:59:48;;;;;;;3.27;3.05;;;;;;;20.41;74.13;99762.04;1751116;80;21581;-65
2022/07/28 03:02:19;;;;;;;3.67;3.37;;;;;;;20.39;74.35;99770.67;1754260;79;21613;-65
2022/07/28 03:04:57;;;;;;;3.65;3.35;;;;;;;20.34;74.40;99775.56;1756348;80;21399;-65
2022/07/28 03:07:29;;;;;;;4.00;3.17;;;;;;;20.35;74.40;99771.05;1745730;80;21570;-65
2022/07/28 03:09:55;;;;;;;3.52;3.30;;;;;;;20.32;74.41;99777.97;1724700;80;21487;-65
2022/07/28 03:12:22;;;;;;;3.70;3.22;;;;;;;20.30;74.32;99767.91;1743829;79;21542;-65
2022/07/28 03:14:48;;;;;;;3.60;3.30;;;;;;;20.27;74.29;99765.47;1759865;79;21563;-65
2022/07/28 03:17:15;;;;;;;3.27;2.97;;;;;;;20.25;74.09;99764.29;1747729;80;21460;-65
2022/07/28 03:19:42;;;;;;;4.37;3.42;;;;;;;20.24;74.14;99766.58;1733416;80;21443;-65
2022/07/28 03:22:10;;;;;;;7.85;3.42;;;;;;;20.21;73.98;99762.35;1745070;80;21471;-66
2022/07/28 03:24:47;;;;;;;3.97;3.60;;;;;;;20.20;74.00;99767.31;1759266;80;21907;-66
2022/07/28 03:27:29;;;;;;;3.45;3.15;;;;;;;20.21;74.06;99766.36;1746159;80;20942;-66
2022/07/28 03:30:12;;;;;;;3.42;3.17;;;;;;;20.16;73.96;99764.53;1733959;80;21441;-66
2022/07/28 03:32:51;;;;;;;4.65;3.92;;;;;;;20.13;74.11;99774.11;1740567;80;20962;-66
2022/07/28 03:35:19;;;;;;;3.33;3.12;;;;;;;20.17;74.11;99781.39;1748420;80;20986;-66
2022/07/28 03:38:10;;;;;;;3.37;3.08;;;;;;;20.17;74.08;99779.59;1740689;80;21799;-66
2022/07/28 03:40:38;;;;;;;4.92;3.35;;;;;;;20.22;74.04;99778.72;1745598;80;21571;-65
2022/07/28 03:43:07;;;;;;;3.95;3.30;;;;;;;20.03;74.11;99779.84;1719395;81;21184;-68
2022/07/28 03:45:36;;;;;;;3.35;3.12;;;;;;;20.22;74.37;99793.39;1737266;80;21543;-65
2022/07/28 03:48:03;;;;;;;3.77;3.47;;;;;;;20.26;74.39;99785.99;1735891;80;21531;-65
2022/07/28 03:50:31;;;;;;;3.60;3.30;;;;;;;20.35;73.94;99789.75;1741677;80;21740;-65
2022/07/28 03:52:58;;;;;;;4.70;3.72;;;;;;;20.39;73.87;99795.19;1730994;80;21089;-65
2022/07/28 03:55:25;;;;;;;3.05;2.85;;;;;;;20.47;73.67;99792.73;1744744;81;21576;-65
2022/07/28 03:57:52;;;;;;;3.83;3.52;;;;;;;20.49;73.50;99786.78;1732203;80;21448;-65
2022/07/28 04:00:19;;;;;;;3.92;3.37;;;;;;;20.52;73.43;99789.70;1734860;80;21558;-65
2022/07/28 04:02:47;;;;;;;3.60;3.30;;;;;;;20.55;73.22;99794.31;1729329;80;21802;-62
2022/07/28 04:05:15;;;;;;;4.12;3.35;;;;;;;20.62;73.11;99794.67;1751273;80;21418;-62
2022/07/28 04:07:45;;;;;;;4.47;3.05;;;;;;;20.69;72.87;99795.03;1737066;80;21034;-62
2022/07/28 04:10:14;;;;;;;3.12;2.87;;;;;;;20.75;72.48;99790.01;1718521;80;21097;-62
2022/07/28 04:12:55;;;;;;;3.33;2.75;;;;;;;20.79;72.04;99791.48;1719466;80;21563;-64
2022/07/28 04:15:24;;;;;;;3.25;3.05;;;;;;;20.85;71.69;99790.58;1736186;80;21562;-63
2022/07/28 04:17:52;;;;;;;3.40;3.10;;;;;;;20.88;71.86;99784.49;1721416;80;20991;-63
2022/07/28 04:20:21;;;;;;;5.00;2.98;;;;;;;20.88;71.86;99784.49;1728793;81;21448;-63
2022/07/28 04:22:48;;;;;;;5.03;3.00;;;;;;;20.89;71.21;99782.20;1728835;80;21405;-63
2022/07/28 04:25:18;;;;;;;3.27;2.98;;;;;;;20.94;70.79;99785.31;1731070;80;21491;-63
2022/07/28 04:27:44;;;;;;;3.87;3.15;;;;;;;21.10;70.32;99782.20;1718419;81;22005;-63
2022/07/28 04:30:17;;;;;;;5.25;3.17;;;;;;;21.10;70.32;99782.20;1723192;80;21086;-63
2022/07/28 04:32:48;;;;;;;3.05;2.85;;;;;;;21.19;69.89;99776.55;1721241;80;21479;-63
2022/07/28 04:35:15;;;;;;;4.12;2.92;;;;;;;21.26;69.78;99784.41;1737712;80;21497;-64
2022/07/28 04:37:42;;;;;;;4.60;2.77;;;;;;;21.26;69.78;99784.41;1722876;81;21554;-64
2022/07/28 04:40:10;;;;;;;2.55;2.27;;;;;;;21.35;69.20;99782.30;1724629;80;21491;-63
2022/07/28 04:42:38;;;;;;;2.80;2.60;;;;;;;21.38;69.10;99777.19;1750018;79;21582;-63
2022/07/28 04:45:06;;;;;;;9.05;2.70;;;;;;;21.45;67.80;99793.08;1741167;80;20970;-63
2022/07/28 04:47:33;;;;;;;;;;;;;;;21.47;66.96;99784.92;1742718;81;21462;-63
2022/07/28 04:50:00;;;;;;;2.45;2.25;;;;;;;21.51;66.02;99790.36;1736374;80;20135;-63
2022/07/28 04:52:27;;;;;;;2.58;2.37;;;;;;;21.55;66.20;99787.80;1743341;80;22040;-62
2022/07/28 04:54:53;;;;;;;2.83;2.52;;;;;;;21.61;65.90;99774.39;1758151;79;21419;-62
2022/07/28 04:57:21;;;;;;;5.05;2.42;;;;;;;21.66;65.50;99782.84;1746794;80;21510;-63
2022/07/28 04:59:48;;;;;;;3.40;2.30;;;;;;;21.82;64.84;99787.22;1745105;80;21530;-65
2022/07/28 05:02:15;;;;;;;3.20;2.25;;;;;;;21.82;64.84;99787.22;1742088;80;21593;-62
2022/07/28 05:04:43;;;;;;;3.98;2.12;;;;;;;21.84;63.88;99785.25;1738703;80;21934;-63
2022/07/28 05:07:11;;;;;;;4.35;1.92;;;;;;;21.95;61.66;99782.98;1725220;80;21490;-62
2022/07/28 05:09:38;;;;;;;;;;;;;;;21.95;61.66;99782.98;1739101;80;21479;-63
2022/07/28 05:12:06;;;;;;;2.00;1.60;;;;;;;22.00;60.69;99776.73;1742590;80;20149;-62
2022/07/28 05:14:33;;;;;;;4.55;1.85;;;;;;;22.03;61.12;99779.12;1749250;80;21515;-62
2022/07/28 05:17:01;;;;;;;2.80;1.70;;;;;;;22.22;60.29;99772.97;1758993;80;21499;-63
2022/07/28 05:19:28;;;;;;;4.00;1.55;;;;;;;22.22;60.29;99772.97;1746950;80;21534;-63
2022/07/28 05:21:55;;;;;;;2.55;1.60;;;;;;;22.27;59.72;99767.25;1754337;80;21439;-63
2022/07/28 05:24:22;;;;;;;1.65;1.25;;;;;;;22.30;59.14;99772.31;1744057;80;21045;-62
2022/07/28 05:26:48;;;;;;;3.58;1.80;;;;;;;22.39;58.31;99780.86;1741212;80;21675;-62
2022/07/28 05:29:15;;;;;;;1.90;1.50;;;;;;;22.39;58.31;99780.86;1734010;80;21784;-62
2022/07/28 05:31:42;;;;;;;3.80;1.67;;;;;;;22.46;57.34;99785.19;1741770;80;21515;-62
2022/07/28 05:34:08;;;;;;;7.10;1.82;;;;;;;22.52;57.27;99788.64;1738497;80;21545;-62
2022/07/28 05:36:36;;;;;;;3.65;1.40;;;;;;;22.59;56.96;99782.25;1737588;80;21558;-62
2022/07/28 05:39:03;;;;;;;3.33;1.70;;;;;;;22.67;56.92;99785.91;1739480;80;21523;-62
2022/07/28 05:41:29;;;;;;;2.77;1.62;;;;;;;22.76;56.91;99790.92;1750028;80;21536;-62
2022/07/28 05:43:57;;;;;;;5.20;1.97;;;;;;;22.90;56.95;99797.69;1722402;81;21472;-63
2022/07/28 05:46:23;;;;;;;4.45;1.50;;;;;;;23.02;56.45;99792.55;1748474;80;20999;-62
2022/07/28 05:48:51;;;;;;;1.57;1.30;;;;;;;23.10;55.94;99791.87;1733901;80;21549;-63
2022/07/28 05:51:18;;;;;;;2.02;1.35;;;;;;;23.20;55.12;99790.01;1742701;80;26975;-63
2022/07/28 05:53:45;;;;;;;4.17;1.50;;;;;;;23.27;53.65;99787.61;1739811;80;21822;-62
2022/07/28 05:56:13;;;;;;;3.47;1.37;;;;;;;23.29;53.53;99790.99;1729770;81;20962;-62
2022/07/28 05:58:41;;;;;;;3.72;1.40;;;;;;;23.29;53.25;99794.52;1735499;80;21491;-63
2022/07/28 06:01:08;;;;;;;2.37;1.37;;;;;;;23.36;52.94;99796.14;1732599;81;21844;-64
2022/07/28 06:03:36;;;;;;;6.42;1.62;;;;;;;23.44;52.48;99803.46;1740625;81;21422;-64
2022/07/28 06:06:04;;;;;;;4.43;1.60;;;;;;;23.44;52.48;99803.46;1740221;80;21853;-62
2022/07/28 06:08:35;;;;;;;6.70;2.02;;;;;;;23.52;52.40;99807.59;1747622;80;21483;-63
2022/07/28 06:11:08;;;;;;;4.83;1.40;;;;;;;23.57;51.91;99803.99;1737593;79;21567;-64
2022/07/28 06:13:30;;;;;;;3.35;1.20;;;;;;;23.61;52.20;99805.89;1741642;80;21431;-64
2022/07/28 06:15:58;;;;;;;2.17;1.55;;;;;;;23.68;51.50;99805.66;1741125;80;20931;-62
2022/07/28 06:18:26;;;;;;;3.67;1.45;;;;;;;23.74;51.33;99803.73;1735713;81;21002;-62
2022/07/28 06:20:53;;;;;;;2.22;1.40;;;;;;;23.82;51.42;99806.55;1741753;80;21547;-64
2022/07/28 06:23:23;;;;;;;6.12;1.50;;;;;;;23.93;50.93;99806.86;1735829;80;21607;-64
2022/07/28 06:25:50;;;;;;;4.10;2.05;;;;;;;24.02;50.75;99808.66;1733528;80;21605;-64
2022/07/28 06:28:20;;;;;;;1.95;1.35;;;;;;;24.06;50.61;99810.05;1701309;82;21432;-64
2022/07/28 06:30:47;;;;;;;3.27;1.17;;;;;;;24.17;50.72;99814.39;1715370;81;21424;-63
2022/07/28 06:33:15;;;;;;;4.42;1.50;;;;;;;24.26;50.77;99808.60;1738055;81;21487;-63
2022/07/28 06:35:43;;;;;;;3.50;2.10;;;;;;;24.34;50.37;99817.28;1735630;80;21467;-64
2022/07/28 06:38:09;;;;;;;3.45;1.47;;;;;;;24.36;49.49;99817.47;1727415;81;21527;-64
2022/07/28 06:40:37;;;;;;;3.87;1.65;;;;;;;24.41;48.83;99815.19;1732793;80;21523;-63
2022/07/28 06:43:05;;;;;;;3.17;1.42;;;;;;;24.42;48.49;99816.86;1734391;80;22025;-62
2022/07/28 06:45:32;;;;;;;7.17;1.50;;;;;;;24.45;47.98;99806.33;1730939;80;21492;-64
2022/07/28 06:47:59;;;;;;;5.70;1.37;;;;;;;24.45;47.91;99808.51;1738832;80;21549;-63
2022/07/28 06:50:26;;;;;;;8.77;1.53;;;;;;;24.52;47.37;99815.98;1731597;80;21001;-63
2022/07/28 06:52:56;;;;;;;3.45;1.60;;;;;;;24.49;47.22;99811.74;1750779;80;21458;-63
2022/07/28 06:55:24;;;;;;;2.35;1.27;;;;;;;24.57;47.20;99809.67;1745829;80;22875;-62
2022/07/28 06:57:51;;;;;;;7.03;1.45;;;;;;;24.62;47.32;99811.37;1740325;80;21198;-63
2022/07/28 07:00:18;;;;;;;3.08;1.22;;;;;;;24.67;46.58;99810.43;1724700;81;21577;-64
2022/07/28 07:02:44;;;;;;;2.37;1.50;;;;;;;24.74;46.73;99803.45;1728898;81;21528;-63
2022/07/28 07:05:11;;;;;;;3.58;1.42;;;;;;;24.86;45.46;99800.89;1739120;81;21988;-64
2022/07/28 07:07:39;;;;;;;2.12;1.30;;;;;;;24.86;45.46;99800.89;1727695;80;22082;-63
2022/07/28 07:10:07;;;;;;;2.42;1.27;;;;;;;24.95;44.97;99803.64;1730862;79;21499;-63
2022/07/28 07:12:34;;;;;;;3.05;1.47;;;;;;;24.99;44.77;99805.86;1732730;80;21582;-63
2022/07/28 07:15:23;;;;;;;2.80;1.25;;;;;;;25.01;45.13;99807.89;1726924;80;21594;-64
2022/07/28 07:17:50;;;;;;;4.55;1.50;;;;;;;25.13;45.09;99804.48;1612042;87;21499;-63
2022/07/28 07:20:18;;;;;;;3.00;1.52;;;;;;;25.23;45.07;99806.59;1611252;86;21521;-63
2022/07/28 07:22:45;;;;;;;3.40;1.20;;;;;;;25.33;44.53;99815.08;1609873;86;21169;-63
2022/07/28 07:25:15;;;;;;;6.05;1.10;;;;;;;25.31;44.13;99804.47;1572543;89;21942;-64
2022/07/28 07:27:42;;;;;;;2.47;1.37;;;;;;;25.40;43.62;99807.56;1605509;86;21464;-65
2022/07/28 07:30:10;;;;;;;4.22;1.37;;;;;;;25.43;43.46;99807.26;1587147;87;21190;-64
2022/07/28 07:32:37;;;;;;;4.97;1.30;;;;;;;25.49;43.95;99807.12;1611437;87;21734;-64
2022/07/28 07:35:05;;;;;;;3.43;1.33;;;;;;;25.48;43.82;99808.63;1591826;89;21562;-63
2022/07/28 07:37:32;;;;;;;4.17;1.10;;;;;;;25.49;43.94;99807.12;1588889;89;21755;-63
2022/07/28 07:39:59;;;;;;;1.12;1.02;;;;;;;25.16;44.59;99814.07;1578524;89;21647;-63
2022/07/28 07:42:27;;;;;;;3.40;1.57;;;;;;;25.11;44.12;99816.38;1597132;87;21563;-63
2022/07/28 07:44:54;;;;;;;4.33;1.30;;;;;;;25.17;44.97;99818.47;1590171;88;22201;-63
2022/07/28 07:47:24;;;;;;;3.17;1.40;;;;;;;25.25;44.91;99822.59;1583452;88;21587;-62
2022/07/28 07:49:52;;;;;;;4.47;1.32;;;;;;;25.36;44.48;99818.30;1580629;88;21463;-63
2022/07/28 07:52:18;;;;;;;3.37;1.00;;;;;;;25.46;43.85;99816.86;1586912;88;21660;-64
2022/07/28 07:54:45;;;;;;;5.65;1.25;;;;;;;25.51;43.55;99812.36;1582891;88;21549;-64
2022/07/28 07:57:12;;;;;;;2.83;1.30;;;;;;;25.54;43.68;99814.71;1581492;88;21924;-65
2022/07/28 07:59:38;;;;;;;3.00;1.22;;;;;;;25.62;43.62;99816.97;1582568;88;21454;-64
2022/07/28 08:02:05;;;;;;;5.35;1.40;;;;;;;25.69;43.38;99820.36;1582072;88;21521;-64
2022/07/28 08:04:33;;;;;;;3.08;1.22;;;;;;;25.77;42.92;99823.13;1611350;87;21469;-64
2022/07/28 08:06:59;;;;;;;3.77;1.30;;;;;;;25.85;42.42;99816.42;1611458;87;21651;-61
2022/07/28 08:09:27;;;;;;;3.65;1.12;;;;;;;25.83;42.72;99817.09;1577919;89;21596;-63
2022/07/28 08:11:56;;;;;;;2.37;1.22;;;;;;;25.89;42.73;99820.99;1581832;89;21568;-64
2022/07/28 08:14:23;;;;;;;3.67;1.42;;;;;;;25.98;41.56;99825.45;1594718;87;21664;-62
2022/07/28 08:16:51;;;;;;;2.13;1.00;;;;;;;26.05;41.01;99823.81;1593634;88;21608;-63
2022/07/28 08:19:17;;;;;;;;;;;;;;;26.00;40.61;99822.09;1634384;85;21093;-65
2022/07/28 08:21:44;;;;;;;2.70;1.30;;;;;;;26.00;40.76;99822.93;1626844;86;21822;-63
2022/07/28 08:24:10;;;;;;;2.83;1.40;;;;;;;25.97;40.81;99819.70;1629204;86;21053;-63
2022/07/28 08:26:38;;;;;;;2.50;1.10;;;;;;;26.00;41.03;99822.09;1607545;87;21467;-62
2022/07/28 08:29:08;;;;;;;;;;;;;;;26.06;41.45;99820.60;1638462;85;21642;-61
2022/07/28 08:31:41;;;;;;;3.50;1.50;;;;;;;26.17;40.73;99822.50;1632804;85;20186;-62
2022/07/28 08:34:08;;;;;;;5.10;1.17;;;;;;;26.26;38.95;99823.38;1641186;86;21910;-62
2022/07/28 08:36:35;;;;;;;3.90;1.45;;;;;;;26.33;39.69;99826.25;1607056;87;21104;-61
2022/07/28 08:39:02;;;;;;;6.78;0.93;;;;;;;26.27;39.25;99828.27;1603257;87;21729;-61
2022/07/28 08:41:40;;;;;;;2.52;1.00;;;;;;;26.26;38.44;99827.91;1600965;88;21466;-61
2022/07/28 08:44:07;;;;;;;2.98;1.55;;;;;;;26.45;38.43;99829.00;1623600;86;21470;-63
2022/07/28 08:46:37;;;;;;;1.50;1.10;;;;;;;26.56;38.52;99825.14;1592451;88;21790;-62
2022/07/28 08:49:08;;;;;;;4.37;1.02;;;;;;;26.69;38.54;99826.05;1602096;87;21608;-61
2022/07/28 08:51:38;;;;;;;1.52;1.00;;;;;;;26.80;38.32;99823.03;1603353;88;21056;-62
2022/07/28 08:54:05;;;;;;;2.25;1.00;;;;;;;26.89;38.41;99830.12;1607973;86;21065;-62
2022/07/28 08:56:39;;;;;;;3.02;1.22;;;;;;;26.95;38.40;99817.31;1610343;87;21076;-62
2022/07/28 08:59:13;;;;;;;4.60;1.17;;;;;;;27.03;37.90;99815.64;1630426;86;21926;-63
2022/07/28 09:01:40;;;;;;;2.08;1.05;;;;;;;27.11;38.05;99815.66;1626945;86;21467;-63
2022/07/28 09:04:07;;;;;;;2.57;1.60;;;;;;;27.13;36.89;99824.42;1593339;86;21545;-61
2022/07/28 09:06:40;;;;;;;2.02;1.30;;;;;;;27.11;36.83;99818.36;1609194;87;21027;-62
2022/07/28 09:09:03;;;;;;;5.50;1.42;;;;;;;27.11;37.10;99823.75;1603298;86;21735;-64
2022/07/28 09:11:31;;;;;;;2.30;1.32;;;;;;;27.06;37.44;99822.06;1587791;88;21073;-63
2022/07/28 09:13:59;;;;;;;4.50;1.00;;;;;;;27.16;37.19;99820.89;1635178;85;21594;-62
2022/07/28 09:16:26;;;;;;;1.60;1.12;;;;;;;27.28;37.02;99824.63;1624197;86;21657;-63
2022/07/28 09:18:52;;;;;;;3.67;1.25;;;;;;;27.41;36.75;99829.00;1619345;86;21603;-63
2022/07/28 09:21:21;;;;;;;1.57;0.90;;;;;;;27.41;36.62;99826.79;1631679;86;21545;-63
2022/07/28 09:23:48;;;;;;;1.77;1.10;;;;;;;27.42;36.80;99821.73;1625884;85;21824;-63
2022/07/28 09:26:16;;;;;;;2.50;1.02;;;;;;;27.46;36.81;99819.86;1622995;86;22008;-63
2022/07/28 09:29:08;;;;;;;5.25;1.27;;;;;;;27.51;36.96;99829.65;1619771;86;21522;-63
2022/07/28 09:31:34;;;;;;;1.95;0.95;;;;;;;27.65;36.98;99825.91;1652700;84;21557;-63
2022/07/28 09:34:03;;;;;;;2.60;1.17;;;;;;;27.77;36.65;99829.44;1629702;85;21538;-63
2022/07/28 09:36:39;;;;;;;3.40;1.00;;;;;;;27.81;36.74;99827.23;1644609;84;21765;-62
2022/07/28 09:39:06;;;;;;;1.80;1.17;;;;;;;27.83;35.89;99829.77;1657016;84;21675;-61
2022/07/28 09:41:48;;;;;;;1.77;1.10;;;;;;;27.79;36.65;99829.78;1657807;84;21506;-61
2022/07/28 09:44:18;;;;;;;4.95;1.00;;;;;;;27.85;36.34;99834.48;1656897;84;21589;-61
2022/07/28 09:46:45;;;;;;;1.95;1.10;;;;;;;27.93;36.36;99838.54;1658654;84;21444;-62
2022/07/28 09:49:12;;;;;;;;;;;;;;;28.02;36.21;99828.05;1630106;85;21834;-62
2022/07/28 09:51:39;;;;;;;2.40;1.12;;;;;;;28.10;35.40;99825.81;1648175;84;20414;-63
2022/07/28 09:54:08;;;;;;;3.25;1.30;;;;;;;28.15;36.02;99827.49;1662249;83;21506;-61
2022/07/28 09:56:43;;;;;;;2.42;0.98;;;;;;;28.24;35.32;99830.50;1657186;84;21841;-63
2022/07/28 09:59:10;;;;;;;2.37;1.20;;;;;;;28.24;35.35;99836.42;1656443;84;21628;-62
2022/07/28 10:01:57;;;;;;;4.17;1.12;;;;;;;28.18;35.37;99824.94;1655990;84;21817;-62
2022/07/28 10:04:35;;;;;;;5.72;1.37;;;;;;;28.24;35.40;99828.31;1656946;84;21579;-62
2022/07/28 10:07:09;;;;;;;4.12;1.25;;;;;;;28.30;35.27;99821.67;1653840;83;21587;-62
2022/07/28 10:09:37;;;;;;;2.35;1.10;;;;;;;28.25;34.51;99825.41;1656922;83;21479;-63
2022/07/28 10:12:26;;;;;;;3.77;1.32;;;;;;;28.30;35.29;99827.59;1658357;84;21441;-61
2022/07/28 10:14:55;;;;;;;2.98;1.25;;;;;;;28.42;34.94;99822.62;1648235;84;22204;-60
2022/07/28 10:17:29;;;;;;;1.65;1.10;;;;;;;28.38;34.03;99822.14;1644768;84;21509;-61
2022/07/28 10:20:06;;;;;;;5.15;1.82;;;;;;;28.30;32.77;99825.73;1658016;83;21449;-61
2022/07/28 10:22:36;;;;;;;4.45;1.45;;;;;;;28.27;33.44;99828.77;1646861;84;21489;-61
2022/07/28 10:25:13;;;;;;;5.12;1.00;;;;;;;28.25;33.24;99824.57;1626765;85;21593;-62
2022/07/28 10:27:41;;;;;;;6.50;1.15;;;;;;;28.36;33.42;99833.64;1654741;84;21839;-63
2022/07/28 10:30:10;;;;;;;4.05;1.10;;;;;;;28.42;32.74;99819.41;1664209;83;21534;-63
2022/07/28 10:32:42;;;;;;;4.00;1.32;;;;;;;28.44;32.89;99816.53;1681147;83;21595;-63
2022/07/28 10:35:16;;;;;;;3.62;1.32;;;;;;;28.47;32.60;99807.56;1675680;83;21541;-63
2022/07/28 10:38:04;;;;;;;1.50;1.07;;;;;;;28.51;33.51;99812.94;1677723;83;21044;-62
2022/07/28 10:40:42;;;;;;;1.92;1.00;;;;;;;28.52;33.09;99816.54;1679343;83;21772;-62
2022/07/28 10:43:09;;;;;;;3.20;1.10;;;;;;;28.52;33.09;99810.61;1676092;83;21548;-62
2022/07/28 10:45:40;;;;;;;3.22;0.93;;;;;;;28.57;33.07;99819.53;1681827;83;20970;-62
2022/07/28 10:48:06;;;;;;;2.47;1.20;;;;;;;28.63;31.66;99816.14;1678685;83;21447;-62
2022/07/28 10:50:36;;;;;;;2.35;0.90;;;;;;;28.68;31.67;99812.36;1678645;83;22174;-62
2022/07/28 10:53:03;;;;;;;3.83;1.05;;;;;;;28.66;31.58;99809.00;1648133;84;21830;-63
2022/07/28 10:55:50;;;;;;;4.58;1.45;;;;;;;28.78;31.66;99810.77;1674576;83;21509;-61
2022/07/28 10:58:48;;;;;;;1.65;1.10;;;;;;;28.82;31.99;99820.72;1660968;83;21037;-61
2022/07/28 11:01:36;;;;;;;3.25;1.30;;;;;;;29.05;31.80;99821.58;1673649;83;22110;-60
2022/07/28 11:04:04;;;;;;;1.82;1.07;;;;;;;29.08;31.46;99819.01;1682285;83;21626;-62
2022/07/28 11:06:38;;;;;;;2.90;1.22;;;;;;;29.14;31.93;99815.63;1679107;83;21851;-61
2022/07/28 11:09:21;;;;;;;1.85;1.15;;;;;;;29.22;31.39;99822.31;1678294;83;21003;-61
2022/07/28 11:11:54;;;;;;;3.15;1.15;;;;;;;29.22;31.00;99824.19;1674145;83;21571;-61
2022/07/28 11:14:33;;;;;;;1.95;1.07;;;;;;;29.18;30.92;99816.94;1682048;83;21511;-60
2022/07/28 11:17:12;;;;;;;1.90;1.37;;;;;;;29.20;31.25;99808.64;1628223;87;21569;-60
2022/07/28 11:19:50;;;;;;;4.33;1.40;;;;;;;29.21;31.57;99808.44;1677053;83;21613;-61
2022/07/28 11:22:20;;;;;;;1.92;1.15;;;;;;;29.40;31.72;99807.08;1686499;83;21557;-64
2022/07/28 11:25:03;;;;;;;4.87;0.98;;;;;;;29.46;30.62;99806.84;1678601;83;21526;-61
2022/07/28 11:27:45;;;;;;;1.47;1.10;;;;;;;29.42;30.83;99806.41;1675276;83;21502;-64
2022/07/28 11:30:36;;;;;;;2.12;1.35;;;;;;;29.44;31.10;99795.36;1672491;83;21590;-64
2022/07/28 11:33:08;;;;;;;3.15;1.10;;;;;;;29.45;32.07;99789.77;1657159;84;21967;-64
2022/07/28 11:35:46;;;;;;;1.55;1.00;;;;;;;29.66;31.72;99782.78;1671543;83;21071;-65
2022/07/28 11:38:13;;;;;;;1.42;1.27;;;;;;;29.79;30.73;99785.70;1661821;83;21131;-66
2022/07/28 11:40:46;;;;;;;1.10;1.00;;;;;;;29.96;30.25;99785.52;1662910;85;21072;-65
2022/07/28 11:43:30;;;;;;;2.00;1.22;;;;;;;30.01;30.06;99789.34;1669307;83;21523;-65
2022/07/28 11:46:09;;;;;;;3.50;1.30;;;;;;;30.00;30.23;99783.59;1666830;84;21918;-65
2022/07/28 11:48:43;;;;;;;2.10;1.10;;;;;;;30.17;30.56;99792.35;1669438;84;21561;-64
2022/07/28 11:51:11;;;;;;;4.10;1.30;;;;;;;30.31;30.00;99773.53;1666205;84;21001;-63